Terminal Aerodrome Forecast
Issued by NWS

Home | Current Version | Previous Version | Text Only | Print | Product List | Glossary On
Versions: 1 2 3 4 5 6 7 8 9 10 11 12
717
FTPA31 PHFO 182336
TAFHJH
TAF
PHJH 182336Z 1900/1924 05016G24KT P6SM FEW030 SCT045
     FM190600 05010KT P6SM VCSH FEW030 SCT045
     FM192000 05015G23KT P6SM FEW030 SCT045
      AMD NOT SKED AFT 190400=

USA.gov is the U.S. government's official web portal to all federal, state and local government web resources and services.